createdAt,value
2019-03-31T00:00:32.153Z,27.3
2019-03-31T00:01:34.589Z,27.3
2019-03-31T00:02:37.019Z,27.2
2019-03-31T00:03:39.454Z,27.2
2019-03-31T00:04:41.966Z,27.4
2019-03-31T00:05:44.386Z,27.3
2019-03-31T00:06:46.003Z,27.2
2019-03-31T00:07:48.429Z,27.5
2019-03-31T00:08:50.852Z,27.3
2019-03-31T00:09:53.308Z,27.3
2019-03-31T00:10:55.739Z,27.4
2019-03-31T00:12:02.162Z,27.5
2019-03-31T00:13:04.323Z,27.6
2019-03-31T00:14:06.479Z,27.5
2019-03-31T00:15:08.918Z,27.6
2019-03-31T00:16:11.066Z,27.5
2019-03-31T00:17:13.505Z,27.5
2019-03-31T00:18:15.659Z,27.5
2019-03-31T00:19:17.802Z,27.4
2019-03-31T00:20:19.668Z,27.5
2019-03-31T00:21:21.797Z,27.6
2019-03-31T00:22:23.945Z,27.2
2019-03-31T00:23:26.129Z,27.3
2019-03-31T00:24:28.270Z,27.4
2019-03-31T00:25:30.702Z,27.3
2019-03-31T00:26:33.188Z,27.4
2019-03-31T00:27:35.641Z,27.2
2019-03-31T00:28:37.829Z,27.3
2019-03-31T00:29:40.249Z,27.3
2019-03-31T00:30:42.671Z,27.3
2019-03-31T00:31:45.147Z,27.4
2019-03-31T00:32:47.569Z,27.4
2019-03-31T00:33:49.451Z,27.4
2019-03-31T00:34:51.878Z,27.5
2019-03-31T00:35:54.311Z,27.4
2019-03-31T00:36:56.739Z,27.3
2019-03-31T00:37:59.183Z,27.6
2019-03-31T00:39:01.610Z,27.5
2019-03-31T00:40:04.037Z,27.7
2019-03-31T00:41:06.464Z,27.7
2019-03-31T00:42:08.889Z,27.6
2019-03-31T00:43:11.065Z,27.8
2019-03-31T00:44:13.506Z,27.9
2019-03-31T00:45:15.118Z,27.6
2019-03-31T00:46:17.283Z,27.8
2019-03-31T00:47:19.706Z,27.5
2019-03-31T00:48:21.862Z,27.7
2019-03-31T00:49:24.010Z,27.7
2019-03-31T00:50:26.427Z,27.8
2019-03-31T00:51:28.585Z,27.5
2019-03-31T00:52:31.019Z,27.8
2019-03-31T00:53:32.905Z,27.7
2019-03-31T00:54:35.347Z,27.6
2019-03-31T00:55:37.766Z,27.7
2019-03-31T00:56:40.196Z,27.7
2019-03-31T00:57:42.349Z,27.7
2019-03-31T00:58:44.495Z,27.5
2019-03-31T00:59:46.925Z,27.8
2019-03-31T01:00:49.410Z,27.8
2019-03-31T01:01:51.922Z,28
2019-03-31T01:02:54.089Z,27.9
2019-03-31T01:03:56.520Z,27.8
2019-03-31T01:04:58.683Z,27.7
2019-03-31T01:06:01.120Z,27.8
2019-03-31T01:07:03.264Z,27.8
2019-03-31T01:08:05.766Z,27.7
2019-03-31T01:09:08.191Z,28
2019-03-31T01:10:10.615Z,27.9
2019-03-31T01:11:13.030Z,27.7
2019-03-31T01:12:15.453Z,27.7
2019-03-31T01:13:17.611Z,28.1
2019-03-31T01:14:20.027Z,27.8
2019-03-31T01:15:22.472Z,28.1
2019-03-31T01:16:24.642Z,27.7
2019-03-31T01:17:27.081Z,27.9
2019-03-31T01:18:29.232Z,27.8
2019-03-31T01:19:31.659Z,28.1
2019-03-31T01:20:34.098Z,27.8
2019-03-31T01:21:36.247Z,27.9
2019-03-31T01:22:38.672Z,27.6
2019-03-31T01:23:41.097Z,27.8
2019-03-31T01:24:43.533Z,27.8
2019-03-31T01:25:45.697Z,27.9
2019-03-31T01:26:47.583Z,27.8
2019-03-31T01:27:50.018Z,27.9
2019-03-31T01:28:52.442Z,27.7
2019-03-31T01:29:54.324Z,27.9
2019-03-31T01:30:56.752Z,27.8
2019-03-31T01:31:58.905Z,27.5
2019-03-31T01:33:01.069Z,27.8
2019-03-31T01:34:03.197Z,27.9
2019-03-31T01:35:05.706Z,27.8
2019-03-31T01:36:08.121Z,27.7
2019-03-31T01:37:10.551Z,27.8
2019-03-31T01:38:12.689Z,27.7
2019-03-31T01:39:15.120Z,27.6
2019-03-31T01:40:17.540Z,27.7
2019-03-31T01:41:19.688Z,27.9
2019-03-31T01:42:22.100Z,27.8
2019-03-31T01:43:24.588Z,27.9
2019-03-31T01:44:27.031Z,27.7
2019-03-31T01:45:29.539Z,27.8
2019-03-31T01:46:31.965Z,27.7
2019-03-31T01:47:33.815Z,27.8
2019-03-31T01:48:36.248Z,27.7
2019-03-31T01:49:38.398Z,27.5
2019-03-31T01:50:40.840Z,27.9
2019-03-31T01:51:43.270Z,27.8
2019-03-31T01:52:45.427Z,27.9
2019-03-31T01:53:47.849Z,27.8
2019-03-31T01:54:50.269Z,27.7
2019-03-31T01:55:52.698Z,27.7
2019-03-31T01:56:54.849Z,27.8
2019-03-31T01:57:57.289Z,27.8
2019-03-31T01:58:59.717Z,27.9
2019-03-31T02:00:01.854Z,27.6
2019-03-31T02:01:04.280Z,27.9
2019-03-31T02:02:06.709Z,27.6
2019-03-31T02:03:09.141Z,27.8
2019-03-31T02:04:11.029Z,27.8
2019-03-31T02:05:13.455Z,27.7
2019-03-31T02:06:15.880Z,27.9
2019-03-31T02:07:18.030Z,27.7
2019-03-31T02:08:20.188Z,27.6
2019-03-31T02:09:22.620Z,27.7
2019-03-31T02:10:25.060Z,27.9
2019-03-31T02:11:27.217Z,27.9
2019-03-31T02:12:29.629Z,27.9
2019-03-31T02:13:32.050Z,27.7
2019-03-31T02:14:34.474Z,27.6
2019-03-31T02:15:36.607Z,27.8
2019-03-31T02:16:39.031Z,27.8
2019-03-31T02:17:41.454Z,27.8
2019-03-31T02:18:43.872Z,27.7
2019-03-31T02:19:45.714Z,27.7
2019-03-31T02:20:48.141Z,27.9
2019-03-31T02:21:50.289Z,27.9
2019-03-31T02:22:52.448Z,27.9
2019-03-31T02:23:54.887Z,27.6
2019-03-31T02:24:57.309Z,27.9
2019-03-31T02:25:59.729Z,27.9
2019-03-31T02:27:01.595Z,28
2019-03-31T02:28:04.022Z,27.6
2019-03-31T02:29:06.448Z,27.6
2019-03-31T02:30:08.623Z,27.9
2019-03-31T02:31:11.050Z,27.9
2019-03-31T02:32:22.992Z,27.8
2019-03-31T02:33:18.485Z,27.9
2019-03-31T02:34:20.659Z,27.7
2019-03-31T02:35:23.095Z,27.7
2019-03-31T02:36:25.528Z,28
2019-03-31T02:37:27.961Z,27.9
2019-03-31T02:38:30.121Z,27.9
2019-03-31T02:39:32.558Z,27.9
2019-03-31T02:40:34.983Z,27.7
2019-03-31T02:41:37.515Z,27.8
2019-03-31T02:42:39.647Z,27.7
2019-03-31T02:43:42.291Z,28.1
2019-03-31T02:44:44.730Z,27.9
2019-03-31T02:45:46.888Z,27.8
2019-03-31T02:46:49.308Z,27.8
2019-03-31T02:47:51.754Z,27.7
2019-03-31T02:48:54.189Z,27.8
2019-03-31T02:49:56.626Z,27.8
2019-03-31T02:50:58.790Z,27.9
2019-03-31T02:52:00.934Z,27.9
2019-03-31T02:53:03.078Z,27.8
2019-03-31T02:54:05.515Z,27.9
2019-03-31T02:55:07.945Z,27.7
2019-03-31T02:56:10.370Z,27.5
2019-03-31T02:57:12.501Z,27.7
2019-03-31T02:58:14.926Z,27.9
2019-03-31T02:59:17.082Z,27.8
2019-03-31T03:00:19.240Z,27.8
2019-03-31T03:01:21.670Z,27.8
2019-03-31T03:02:40.465Z,27.8
2019-03-31T03:03:28.800Z,27.9
2019-03-31T03:04:31.224Z,27.8
2019-03-31T03:05:33.646Z,27.8
2019-03-31T03:06:36.136Z,27.7
2019-03-31T03:07:38.617Z,27.5
2019-03-31T03:08:40.760Z,27.6
2019-03-31T03:09:42.687Z,27.6
2019-03-31T03:10:45.099Z,27.6
2019-03-31T03:11:47.522Z,27.7
2019-03-31T03:12:49.990Z,27.6
2019-03-31T03:13:52.427Z,27.6
2019-03-31T03:14:54.568Z,27.9
2019-03-31T03:15:56.709Z,27.4
2019-03-31T03:16:59.118Z,27.6
2019-03-31T03:18:01.269Z,27.7
2019-03-31T03:19:03.423Z,27.5
2019-03-31T03:20:05.852Z,27.6
2019-03-31T03:21:07.998Z,27.6
2019-03-31T03:22:10.139Z,27.4
2019-03-31T03:23:12.586Z,27.4
2019-03-31T03:24:14.421Z,27.6
2019-03-31T03:25:16.583Z,27.6
2019-03-31T03:26:19.007Z,27.4
2019-03-31T03:27:21.444Z,27.4
2019-03-31T03:28:23.589Z,27.4
2019-03-31T03:29:26.018Z,27.5
2019-03-31T03:30:28.649Z,27.5
2019-03-31T03:31:31.666Z,27.5
2019-03-31T03:32:34.150Z,27.6
2019-03-31T03:33:36.569Z,27.5
2019-03-31T03:34:38.999Z,27.4
2019-03-31T03:35:41.431Z,27.6
2019-03-31T03:36:43.807Z,27.4
2019-03-31T03:37:46.415Z,27.4
2019-03-31T03:38:48.973Z,27.5
2019-03-31T03:39:51.399Z,27.3
2019-03-31T03:40:53.839Z,27.5
2019-03-31T03:41:56.266Z,27.5
2019-03-31T03:42:58.690Z,27.4
2019-03-31T03:44:02.429Z,27.4
2019-03-31T03:45:05.230Z,27.2
2019-03-31T03:46:07.438Z,27.4
2019-03-31T03:47:09.894Z,27.4
2019-03-31T03:48:12.330Z,27.3
2019-03-31T03:49:14.576Z,27.4
2019-03-31T03:50:18.233Z,27.5
2019-03-31T03:51:20.374Z,27.1
2019-03-31T03:52:22.591Z,27.3
2019-03-31T03:53:24.748Z,27.1
2019-03-31T03:54:27.179Z,27.2
2019-03-31T03:55:29.601Z,27.3
2019-03-31T03:56:32.028Z,27.2
2019-03-31T03:57:33.924Z,27.3
2019-03-31T03:58:36.379Z,27.4
2019-03-31T03:59:38.530Z,27.3
2019-03-31T04:00:40.955Z,27.4
2019-03-31T04:01:43.227Z,27.4
2019-03-31T04:02:45.380Z,27.2
2019-03-31T04:03:47.923Z,27.4
2019-03-31T04:04:50.060Z,27.1
2019-03-31T04:05:52.487Z,27.2
2019-03-31T04:06:54.646Z,27.3
2019-03-31T04:07:57.149Z,27.3
2019-03-31T04:08:59.579Z,27.4
2019-03-31T04:10:02.005Z,27.2
2019-03-31T04:11:04.149Z,27.4
2019-03-31T04:12:06.596Z,27.3
2019-03-31T04:13:09.015Z,27.5
2019-03-31T04:14:11.438Z,27.2
2019-03-31T04:15:13.861Z,27.4
2019-03-31T04:16:16.281Z,27.4
2019-03-31T04:17:18.438Z,27.3
2019-03-31T04:18:20.861Z,27.2
2019-03-31T04:19:23.283Z,27.4
2019-03-31T04:20:25.748Z,27.4
2019-03-31T04:21:27.894Z,27.6
2019-03-31T04:22:30.050Z,27.2
2019-03-31T04:23:32.476Z,27.4
2019-03-31T04:24:34.651Z,27.3
2019-03-31T04:25:37.079Z,27.5
2019-03-31T04:26:39.233Z,27.4
2019-03-31T04:27:41.651Z,27.4
2019-03-31T04:28:43.525Z,27.4
2019-03-31T04:29:46.122Z,27.4
2019-03-31T04:30:48.545Z,27.5
2019-03-31T04:31:51.098Z,27.4
2019-03-31T04:32:53.535Z,27.4
2019-03-31T04:33:55.684Z,27.5
2019-03-31T04:34:58.168Z,27.4
2019-03-31T04:36:01.050Z,27.3
2019-03-31T04:37:03.473Z,27.5
2019-03-31T04:38:05.897Z,27.5
2019-03-31T04:39:08.369Z,27.3
2019-03-31T04:40:10.785Z,27.3
2019-03-31T04:41:12.934Z,27.4
2019-03-31T04:42:15.098Z,27.4
2019-03-31T04:43:17.521Z,27.4
2019-03-31T04:44:19.649Z,27.4
2019-03-31T04:45:21.827Z,27.6
2019-03-31T04:46:23.951Z,27.5
2019-03-31T04:47:26.104Z,27.5
2019-03-31T04:48:28.535Z,27.4
2019-03-31T04:49:30.686Z,27.2
2019-03-31T04:50:32.839Z,27.4
2019-03-31T04:51:35.010Z,27.4
2019-03-31T04:52:37.183Z,27.5
2019-03-31T04:53:39.608Z,27.1
2019-03-31T04:54:42.039Z,27.4
2019-03-31T04:55:44.175Z,27.4
2019-03-31T04:56:46.602Z,27.3
2019-03-31T04:57:49.024Z,27.1
2019-03-31T04:58:51.520Z,27.4
2019-03-31T04:59:53.938Z,27.2
2019-03-31T05:00:56.352Z,27.3
2019-03-31T05:01:58.790Z,27.4
2019-03-31T05:03:01.231Z,27.4
2019-03-31T05:04:05.196Z,27.5
2019-03-31T05:05:07.785Z,27.2
2019-03-31T05:06:09.644Z,27.3
2019-03-31T05:07:11.528Z,27.5
2019-03-31T05:08:13.968Z,27.5
2019-03-31T05:09:15.871Z,27.4
2019-03-31T05:10:18.016Z,27.4
2019-03-31T05:11:20.161Z,27.5
2019-03-31T05:12:22.306Z,27.1
2019-03-31T05:13:24.734Z,27.5
2019-03-31T05:14:26.875Z,27.4
2019-03-31T05:15:29.299Z,27.3
2019-03-31T05:16:31.518Z,27.3
2019-03-31T05:17:35.711Z,27.4
2019-03-31T05:18:38.330Z,27.3
2019-03-31T05:19:40.750Z,27.4
2019-03-31T05:20:43.168Z,27.3
2019-03-31T05:21:45.035Z,27.2
2019-03-31T05:22:47.462Z,27.3
2019-03-31T05:23:54.358Z,27.2
2019-03-31T05:24:56.517Z,27.2
2019-03-31T05:25:58.948Z,27.4
2019-03-31T05:27:01.384Z,27.3
2019-03-31T05:28:03.542Z,27.2
2019-03-31T05:29:05.692Z,27.3
2019-03-31T05:30:07.838Z,27.3
2019-03-31T05:31:10.276Z,27.1
2019-03-31T05:32:12.143Z,27.3
2019-03-31T05:33:14.298Z,27.2
2019-03-31T05:34:19.157Z,27.3
2019-03-31T05:35:21.437Z,27.2
2019-03-31T05:36:28.340Z,27.4
2019-03-31T05:37:30.759Z,27.2
2019-03-31T05:38:33.707Z,27.2
2019-03-31T05:39:36.131Z,27.2
2019-03-31T05:40:38.371Z,27.2
2019-03-31T05:41:41.872Z,27.2
2019-03-31T05:42:44.043Z,27.1
2019-03-31T05:43:46.476Z,27.3
2019-03-31T05:44:48.630Z,27.4
2019-03-31T05:47:08.153Z,26.9
2019-03-31T05:48:10.285Z,27.1
2019-03-31T05:49:12.710Z,27.5
2019-03-31T05:50:14.875Z,27.2
2019-03-31T05:51:17.312Z,27.2
2019-03-31T05:52:19.815Z,27.2
2019-03-31T05:53:21.948Z,27.3
2019-03-31T05:54:24.378Z,27.2
2019-03-31T05:55:26.518Z,27.2
2019-03-31T05:56:28.672Z,27.1
2019-03-31T05:57:31.096Z,27.3
2019-03-31T05:58:33.526Z,27.3
2019-03-31T05:59:35.948Z,27.2
2019-03-31T06:00:38.402Z,27.3
2019-03-31T06:01:40.547Z,27.1
2019-03-31T06:02:42.968Z,27
2019-03-31T06:03:45.402Z,27.1
2019-03-31T06:04:47.830Z,27.3
2019-03-31T06:05:49.688Z,27.1
2019-03-31T06:06:52.113Z,27.2
2019-03-31T06:07:54.541Z,27.2
2019-03-31T06:08:56.958Z,27.3
2019-03-31T06:09:59.131Z,27.1
2019-03-31T06:11:01.689Z,27.2
2019-03-31T06:12:03.841Z,27.2
2019-03-31T06:13:06.001Z,27.1
2019-03-31T06:14:08.428Z,27.1
2019-03-31T06:15:10.855Z,27.2
2019-03-31T06:16:13.272Z,27.2
2019-03-31T06:17:15.404Z,27.4
2019-03-31T06:18:17.839Z,27.2
2019-03-31T06:19:20.263Z,27
2019-03-31T06:20:22.688Z,27.2
2019-03-31T06:21:25.164Z,27.1
2019-03-31T06:22:30.618Z,27.1
2019-03-31T06:23:32.487Z,27.1
2019-03-31T06:24:34.909Z,27.1
2019-03-31T06:25:37.339Z,27.1
2019-03-31T06:26:39.761Z,27.2
2019-03-31T06:27:41.618Z,27.4
2019-03-31T06:28:44.049Z,27.2
2019-03-31T06:29:46.548Z,27.3
2019-03-31T06:30:48.562Z,27.3
2019-03-31T06:31:51.609Z,27.2
2019-03-31T06:32:55.529Z,27.1
2019-03-31T06:33:58.076Z,27.1
2019-03-31T06:35:00.263Z,27.1
2019-03-31T06:36:02.681Z,27
2019-03-31T06:37:05.165Z,27
2019-03-31T06:38:07.580Z,27
2019-03-31T06:39:10.018Z,27.1
2019-03-31T06:40:12.452Z,27.3
2019-03-31T06:41:14.595Z,27.2
2019-03-31T06:42:17.013Z,27.2
2019-03-31T06:43:19.449Z,27.3
2019-03-31T06:44:21.868Z,27.2
2019-03-31T06:45:24.026Z,27.2
2019-03-31T06:46:26.458Z,27
2019-03-31T06:47:28.678Z,27.2
2019-03-31T06:48:31.116Z,27.1
2019-03-31T06:49:33.544Z,27.2
2019-03-31T06:50:35.424Z,27.4
2019-03-31T06:51:37.562Z,27.3
2019-03-31T06:52:39.990Z,27.1
2019-03-31T06:53:42.406Z,27.3
2019-03-31T06:54:44.828Z,27
2019-03-31T06:55:47.261Z,27.3
2019-03-31T06:56:49.685Z,27.1
2019-03-31T06:57:52.582Z,27.1
2019-03-31T06:59:00.458Z,27.2
2019-03-31T07:00:02.898Z,27.1
2019-03-31T07:01:05.028Z,27.3
2019-03-31T07:02:07.467Z,27.3
2019-03-31T07:03:09.888Z,27.2
2019-03-31T07:04:12.320Z,27.1
2019-03-31T07:05:14.738Z,27.2
2019-03-31T07:06:16.894Z,27
2019-03-31T07:07:19.336Z,27.1
2019-03-31T07:08:25.479Z,27.2
2019-03-31T07:09:27.941Z,27.3
2019-03-31T07:10:30.184Z,27.1
2019-03-31T07:11:32.384Z,27.2
2019-03-31T07:12:34.896Z,27.4
2019-03-31T07:13:37.348Z,27.3
2019-03-31T07:14:39.816Z,26.9
2019-03-31T07:15:42.248Z,27.3
2019-03-31T07:16:44.398Z,27.2
2019-03-31T07:17:46.830Z,27.3
2019-03-31T07:18:49.250Z,27.2
2019-03-31T07:19:51.428Z,27
2019-03-31T07:20:53.865Z,27.1
2019-03-31T07:21:56.023Z,27.2
2019-03-31T07:22:58.184Z,27.5
2019-03-31T07:24:00.351Z,27
2019-03-31T07:25:02.520Z,27.2
2019-03-31T07:26:04.678Z,27.1
2019-03-31T07:27:07.108Z,27.2
2019-03-31T07:28:09.261Z,27.3
2019-03-31T07:29:11.690Z,27
2019-03-31T07:30:14.127Z,27.1
2019-03-31T07:31:16.566Z,27.1
2019-03-31T07:32:18.991Z,26.9
2019-03-31T07:33:21.419Z,27.2
2019-03-31T07:34:23.570Z,27.3
2019-03-31T07:35:25.701Z,27.1
2019-03-31T07:36:27.848Z,27.1
2019-03-31T07:37:30.287Z,27.4
2019-03-31T07:38:39.112Z,27.3
2019-03-31T07:39:45.640Z,27.2
2019-03-31T07:40:47.349Z,27.1
2019-03-31T07:41:51.064Z,27.1
2019-03-31T07:42:54.586Z,27.2
2019-03-31T07:43:56.909Z,27.3
2019-03-31T07:44:59.194Z,27.1
2019-03-31T07:46:01.714Z,27.1
2019-03-31T07:47:03.878Z,27.2
2019-03-31T07:48:08.059Z,27.1
2019-03-31T07:49:10.660Z,27.1
2019-03-31T07:50:12.818Z,27
2019-03-31T07:51:15.239Z,27
2019-03-31T07:52:17.669Z,27.1
2019-03-31T07:53:20.098Z,27.1
2019-03-31T07:54:22.604Z,27.2
2019-03-31T07:55:25.058Z,27.1
2019-03-31T07:56:27.494Z,27.2
2019-03-31T07:57:29.927Z,27.1
2019-03-31T07:58:32.368Z,26.9
2019-03-31T07:59:34.809Z,27.3
2019-03-31T08:00:37.310Z,27.1
2019-03-31T08:01:39.740Z,27.1
2019-03-31T08:02:42.159Z,27.3
2019-03-31T08:03:44.320Z,27.2
2019-03-31T08:04:46.490Z,27.2
2019-03-31T08:05:48.921Z,27.1
2019-03-31T08:06:50.794Z,27.2
2019-03-31T08:07:52.954Z,27.1
2019-03-31T08:08:55.111Z,27
2019-03-31T08:09:57.535Z,27.2
2019-03-31T08:10:59.973Z,27.1
2019-03-31T08:12:02.142Z,27.1
2019-03-31T08:13:04.287Z,27
2019-03-31T08:14:06.726Z,27
2019-03-31T08:15:09.150Z,26.9
2019-03-31T08:16:11.580Z,27.1
2019-03-31T08:17:14.023Z,27.1
2019-03-31T08:18:16.470Z,27.2
2019-03-31T08:19:20.776Z,27.2
2019-03-31T08:20:23.311Z,27.2
2019-03-31T08:21:24.906Z,27
2019-03-31T08:22:27.064Z,27.1
2019-03-31T08:23:29.480Z,27.2
2019-03-31T08:24:31.914Z,27.2
2019-03-31T08:25:34.343Z,27
2019-03-31T08:26:36.756Z,27
2019-03-31T08:27:39.175Z,26.8
2019-03-31T08:28:41.596Z,27.1
2019-03-31T08:29:43.726Z,27.2
2019-03-31T08:30:50.362Z,27.1
2019-03-31T08:31:52.512Z,26.9
2019-03-31T08:32:54.978Z,27.1
2019-03-31T08:33:57.398Z,27.1
2019-03-31T08:34:59.288Z,27.2
2019-03-31T08:36:01.136Z,27.2
2019-03-31T08:37:03.711Z,27
2019-03-31T08:38:06.156Z,27.1
2019-03-31T08:39:08.591Z,27.1
2019-03-31T08:40:11.085Z,27
2019-03-31T08:41:13.511Z,27.4
2019-03-31T08:42:15.427Z,27.2
2019-03-31T08:43:17.334Z,27.1
2019-03-31T08:44:19.473Z,27.1
2019-03-31T08:45:21.889Z,27.3
2019-03-31T08:46:24.315Z,27
2019-03-31T08:47:26.738Z,27.3
2019-03-31T08:48:29.156Z,27.1
2019-03-31T08:49:31.586Z,26.9
2019-03-31T08:50:34.905Z,27.1
2019-03-31T08:51:37.490Z,27.1
2019-03-31T08:52:40.000Z,26.9
2019-03-31T08:53:42.466Z,27.2
2019-03-31T08:54:44.908Z,27
2019-03-31T08:55:46.505Z,27.2
2019-03-31T08:56:48.937Z,27.1
2019-03-31T08:57:51.364Z,27.2
2019-03-31T08:58:53.545Z,27.1
2019-03-31T08:59:55.976Z,26.9
2019-03-31T09:00:58.115Z,27
2019-03-31T09:02:03.163Z,27
2019-03-31T09:03:05.259Z,27
2019-03-31T09:04:07.230Z,27
2019-03-31T09:05:09.678Z,27.1
2019-03-31T09:06:11.911Z,27
2019-03-31T09:07:14.076Z,27
2019-03-31T09:08:16.502Z,27
2019-03-31T09:09:18.946Z,27.1
2019-03-31T09:10:21.520Z,27.2
2019-03-31T09:11:23.944Z,27
2019-03-31T09:12:26.389Z,27.1
2019-03-31T09:13:28.824Z,27.1
2019-03-31T09:14:30.969Z,27
2019-03-31T09:15:33.109Z,27.1
2019-03-31T09:16:34.989Z,27.1
2019-03-31T09:17:37.414Z,27.1
2019-03-31T09:18:39.570Z,27.1
2019-03-31T09:19:42.006Z,27.2
2019-03-31T09:20:44.436Z,27
2019-03-31T09:21:46.867Z,27.1
2019-03-31T09:22:49.062Z,27.3
2019-03-31T09:23:51.499Z,27.1
2019-03-31T09:24:53.967Z,27.1
2019-03-31T09:25:56.151Z,27.1
2019-03-31T09:26:58.590Z,27.2
2019-03-31T09:28:01.032Z,27.3
2019-03-31T09:29:03.517Z,27.3
2019-03-31T09:30:05.678Z,27.1
2019-03-31T09:31:08.120Z,27.3
2019-03-31T09:32:10.278Z,27.2
2019-03-31T09:33:12.710Z,27.1
2019-03-31T09:34:15.148Z,27.2
2019-03-31T09:35:17.582Z,27.1
2019-03-31T09:36:20.030Z,27.1
2019-03-31T09:37:22.179Z,27.2
2019-03-31T09:38:24.634Z,27.4
2019-03-31T09:39:27.097Z,27.2
2019-03-31T09:40:29.541Z,27.2
2019-03-31T09:41:32.009Z,27.1
2019-03-31T09:42:34.452Z,27
2019-03-31T09:43:36.884Z,27.3
2019-03-31T09:44:39.306Z,27.2
2019-03-31T09:45:41.750Z,27.1
2019-03-31T09:46:43.641Z,27.3
2019-03-31T09:47:46.070Z,27
2019-03-31T09:48:48.501Z,27.2
2019-03-31T09:49:50.926Z,26.9
2019-03-31T09:50:56.288Z,27.2
2019-03-31T09:51:58.079Z,27.3
2019-03-31T09:53:00.545Z,27.1
2019-03-31T09:54:03.051Z,27.1
2019-03-31T09:55:05.490Z,27.1
2019-03-31T09:56:07.637Z,27.3
2019-03-31T09:57:10.081Z,27.2
2019-03-31T09:58:12.513Z,27.2
2019-03-31T09:59:14.663Z,27.3
2019-03-31T10:00:16.564Z,27.1
2019-03-31T10:01:18.419Z,27.2
2019-03-31T10:02:20.576Z,27.1
2019-03-31T10:03:22.809Z,27.3
2019-03-31T10:04:25.250Z,27.2
2019-03-31T10:05:27.684Z,27.2
2019-03-31T10:06:30.762Z,27.1
2019-03-31T10:07:33.236Z,27.1
2019-03-31T10:08:35.670Z,27.2
2019-03-31T10:09:38.110Z,27.1
2019-03-31T10:10:40.277Z,27.1
2019-03-31T10:11:42.696Z,27
2019-03-31T10:12:45.131Z,27.5
2019-03-31T10:13:47.010Z,27.2
2019-03-31T10:14:49.172Z,27.4
2019-03-31T10:15:55.588Z,27.2
2019-03-31T10:16:57.759Z,27.1
2019-03-31T10:18:00.188Z,27.2
2019-03-31T10:19:02.682Z,27.2
2019-03-31T10:20:05.116Z,27.3
2019-03-31T10:21:07.551Z,27
2019-03-31T10:22:09.749Z,27.1
2019-03-31T10:23:12.182Z,27.3
2019-03-31T10:24:14.617Z,27.3
2019-03-31T10:25:16.502Z,27.1
2019-03-31T10:26:30.916Z,27.2
2019-03-31T10:27:23.920Z,27.3
2019-03-31T10:28:26.350Z,27.1
2019-03-31T10:29:28.519Z,27.3
2019-03-31T10:30:30.950Z,27.2
2019-03-31T10:31:33.405Z,27.4
2019-03-31T10:32:35.819Z,27.1
2019-03-31T10:33:37.980Z,27.1
2019-03-31T10:34:40.401Z,27.2
2019-03-31T10:35:42.857Z,27.2
2019-03-31T10:36:45.167Z,27.3
2019-03-31T10:37:47.330Z,27
2019-03-31T10:38:49.775Z,27.2
2019-03-31T10:39:52.205Z,27.2
2019-03-31T10:40:54.640Z,27
2019-03-31T10:41:57.064Z,27.2
2019-03-31T10:42:59.501Z,27.1
2019-03-31T10:44:01.935Z,27.1
2019-03-31T10:45:04.360Z,27.3
2019-03-31T10:46:06.787Z,27.1
2019-03-31T10:47:09.222Z,27.3
2019-03-31T10:48:20.008Z,27.4
2019-03-31T10:49:16.638Z,27.1
2019-03-31T10:50:18.769Z,27
2019-03-31T10:51:21.199Z,27.1
2019-03-31T10:52:23.349Z,26.9
2019-03-31T10:53:25.783Z,27.3
2019-03-31T10:54:28.225Z,27
2019-03-31T10:55:30.128Z,27.4
2019-03-31T10:56:32.292Z,27.2
2019-03-31T10:57:34.793Z,27.2
2019-03-31T10:58:37.296Z,27
2019-03-31T10:59:39.736Z,27.3
2019-03-31T11:00:44.400Z,27.2
2019-03-31T11:01:47.160Z,27.3
2019-03-31T11:02:49.583Z,27
2019-03-31T11:03:52.015Z,27.5
2019-03-31T11:04:54.437Z,27.2
2019-03-31T11:05:56.868Z,27.3
2019-03-31T11:07:01.743Z,27.3
2019-03-31T11:08:04.031Z,27.1
2019-03-31T11:09:06.492Z,27
2019-03-31T11:10:08.720Z,27.4
2019-03-31T11:11:10.886Z,27.1
2019-03-31T11:12:13.321Z,27.4
2019-03-31T11:13:15.750Z,27.1
2019-03-31T11:14:18.176Z,27.2
2019-03-31T11:15:20.603Z,27.2
2019-03-31T11:16:23.039Z,27.4
2019-03-31T11:17:24.920Z,27.1
2019-03-31T11:18:27.351Z,27.2
2019-03-31T11:19:29.784Z,27.2
2019-03-31T11:20:31.957Z,27.4
2019-03-31T11:21:34.402Z,27.2
2019-03-31T11:22:36.545Z,27.2
2019-03-31T11:23:38.704Z,27.2
2019-03-31T11:24:41.139Z,27.4
2019-03-31T11:25:43.560Z,27.3
2019-03-31T11:26:45.990Z,27.3
2019-03-31T11:27:48.416Z,27.2
2019-03-31T11:28:50.846Z,27.3
2019-03-31T11:29:53.286Z,27.3
2019-03-31T11:30:55.195Z,27.3
2019-03-31T11:31:57.680Z,27.3
2019-03-31T11:33:00.119Z,27.1
2019-03-31T11:34:02.281Z,27.2
2019-03-31T11:35:04.420Z,27.3
2019-03-31T11:36:06.918Z,27.4
2019-03-31T11:37:13.624Z,27.1
2019-03-31T11:38:14.352Z,27.3
2019-03-31T11:39:16.612Z,27.2
2019-03-31T11:40:19.040Z,27.3
2019-03-31T11:41:21.488Z,27.2
2019-03-31T11:42:23.922Z,27.3
2019-03-31T11:43:25.871Z,27.3
2019-03-31T11:44:28.299Z,27.1
2019-03-31T11:45:30.743Z,27.1
2019-03-31T11:46:33.169Z,27.1
2019-03-31T11:47:35.618Z,27.4
2019-03-31T11:48:37.808Z,27.3
2019-03-31T11:49:40.244Z,27.3
2019-03-31T11:50:42.119Z,27.3
2019-03-31T11:51:44.566Z,27.4
2019-03-31T11:52:47.003Z,27.4
2019-03-31T11:53:49.427Z,27.2
2019-03-31T11:54:51.872Z,27.4
2019-03-31T11:55:54.297Z,27.3
2019-03-31T11:56:56.471Z,27.3
2019-03-31T11:57:58.902Z,27.3
2019-03-31T11:59:01.335Z,27.5
2019-03-31T12:00:03.782Z,27.3
2019-03-31T12:01:05.945Z,27.4
2019-03-31T12:02:08.369Z,27.4
2019-03-31T12:03:10.800Z,27.4
2019-03-31T12:04:13.227Z,27.3
2019-03-31T12:05:15.402Z,27.2
2019-03-31T12:06:17.584Z,27.3
2019-03-31T12:07:27.596Z,27
2019-03-31T12:08:24.991Z,27.5
2019-03-31T12:09:27.409Z,27.3
2019-03-31T12:10:29.587Z,27.3
2019-03-31T12:11:32.009Z,27.3
2019-03-31T12:12:34.169Z,27.3
2019-03-31T12:13:36.620Z,27.2
2019-03-31T12:14:39.038Z,27.2
2019-03-31T12:15:41.475Z,27.2
2019-03-31T12:16:43.929Z,27.4
2019-03-31T12:17:46.119Z,27.4
2019-03-31T12:18:48.015Z,27.2
2019-03-31T12:19:50.437Z,27.4
2019-03-31T12:20:52.869Z,27.2
2019-03-31T12:21:54.741Z,27.3
2019-03-31T12:22:57.178Z,27.3
2019-03-31T12:23:59.323Z,27.3
2019-03-31T12:25:01.471Z,27.3
2019-03-31T12:26:03.905Z,27.4
2019-03-31T12:27:06.069Z,27.3
2019-03-31T12:28:08.223Z,27.4
2019-03-31T12:29:10.654Z,27.1
2019-03-31T12:30:12.527Z,27.3
2019-03-31T12:31:14.679Z,27.2
2019-03-31T12:32:17.115Z,27.5
2019-03-31T12:33:19.559Z,27.3
2019-03-31T12:34:21.721Z,27.4
2019-03-31T12:35:24.155Z,27.5
2019-03-31T12:36:26.650Z,27.4
2019-03-31T12:37:41.510Z,27.5
2019-03-31T12:38:33.779Z,27.3
2019-03-31T12:39:35.675Z,27.5
2019-03-31T12:40:38.138Z,27.3
2019-03-31T12:41:40.299Z,27.3
2019-03-31T12:42:42.460Z,27.3
2019-03-31T12:43:44.628Z,27.4
2019-03-31T12:44:46.799Z,27.4
2019-03-31T12:45:49.243Z,27.4
2019-03-31T12:46:51.679Z,27.6
2019-03-31T12:47:59.563Z,27.5
2019-03-31T12:49:02.605Z,27.5
2019-03-31T12:50:05.047Z,27.4
2019-03-31T12:51:07.468Z,27.4
2019-03-31T12:52:09.894Z,27.4
2019-03-31T12:53:12.049Z,27.5
2019-03-31T12:54:14.200Z,27.7
2019-03-31T12:55:16.119Z,27.5
2019-03-31T12:56:18.559Z,27.3
2019-03-31T12:57:21.000Z,27.4
2019-03-31T12:58:23.129Z,27.4
2019-03-31T12:59:27.352Z,27.5
2019-03-31T13:00:29.978Z,27.3
2019-03-31T13:01:32.409Z,27.3
2019-03-31T13:02:34.858Z,27.3
2019-03-31T13:03:37.291Z,27.4
2019-03-31T13:04:39.152Z,27.6
2019-03-31T13:05:41.316Z,27.5
2019-03-31T13:06:43.748Z,27.7
2019-03-31T13:07:55.961Z,27.5
2019-03-31T13:08:51.160Z,27.4
2019-03-31T13:09:53.585Z,27.6
2019-03-31T13:10:56.018Z,27.3
2019-03-31T13:11:58.448Z,27.4
2019-03-31T13:13:00.876Z,27.4
2019-03-31T13:14:03.062Z,27.6
2019-03-31T13:15:05.236Z,27.4
2019-03-31T13:16:07.498Z,27.4
2019-03-31T13:17:09.932Z,27.5
2019-03-31T13:18:12.094Z,27.5
2019-03-31T13:19:14.269Z,27.4
2019-03-31T13:20:16.705Z,27.5
2019-03-31T13:21:18.590Z,27.4
2019-03-31T13:22:20.759Z,27.6
2019-03-31T13:23:22.922Z,27.3
2019-03-31T13:24:25.086Z,27.4
2019-03-31T13:25:27.509Z,27.6
2019-03-31T13:26:29.932Z,27.5
2019-03-31T13:27:32.075Z,27.5
2019-03-31T13:28:34.502Z,27.6
2019-03-31T13:29:38.297Z,27.6
2019-03-31T13:30:40.875Z,27.6
2019-03-31T13:31:43.028Z,27.5
2019-03-31T13:32:44.899Z,27.5
2019-03-31T13:33:47.341Z,27.7
2019-03-31T13:34:49.499Z,27.4
2019-03-31T13:35:53.177Z,27.6
2019-03-31T13:36:55.509Z,27.5
2019-03-31T13:38:10.197Z,27.6
2019-03-31T13:39:02.935Z,27.6
2019-03-31T13:40:05.393Z,27.5
2019-03-31T13:41:07.822Z,27.5
2019-03-31T13:42:10.040Z,27.5
2019-03-31T13:43:11.959Z,27.6
2019-03-31T13:44:14.401Z,27.7
2019-03-31T13:45:17.040Z,27.7
2019-03-31T13:46:19.205Z,27.7
2019-03-31T13:47:21.435Z,27.5
2019-03-31T13:48:23.871Z,27.5
2019-03-31T13:49:25.794Z,27.4
2019-03-31T13:50:28.248Z,27.4
2019-03-31T13:51:30.407Z,27.5
2019-03-31T13:52:32.850Z,27.5
2019-03-31T13:53:35.030Z,27.4
2019-03-31T13:54:37.562Z,27.4
2019-03-31T13:55:39.717Z,27.6